createdAt,value
2023-03-10T00:00:14.240Z,24.20
2023-03-10T00:02:46.716Z,21.90
2023-03-10T00:05:13.536Z,20.80
2023-03-10T00:07:40.265Z,20.90
2023-03-10T00:10:07.368Z,20.42
2023-03-10T00:12:34.127Z,23.55
2023-03-10T00:15:05.082Z,21.83
2023-03-10T00:17:31.766Z,25.15
2023-03-10T00:19:58.453Z,22.40
2023-03-10T00:22:25.273Z,21.45
2023-03-10T00:24:52.042Z,19.90
2023-03-10T00:27:34.699Z,19.58
2023-03-10T00:30:02.063Z,19.92
2023-03-10T00:32:34.825Z,21.65
2023-03-10T00:35:01.901Z,22.77
2023-03-10T00:37:28.578Z,21.23
2023-03-10T00:39:55.826Z,21.80
2023-03-10T00:42:22.970Z,18.67
2023-03-10T00:44:49.785Z,22.27
2023-03-10T00:47:16.479Z,22.90
2023-03-10T00:49:43.105Z,21.75
2023-03-10T00:52:09.901Z,21.17
2023-03-10T00:54:40.233Z,21.98
2023-03-10T00:57:07.228Z,23.75
2023-03-10T00:59:47.891Z,21.88
2023-03-10T01:02:16.285Z,24.08
2023-03-10T01:04:43.114Z,22.30
2023-03-10T01:07:09.925Z,22.50
2023-03-10T01:09:36.875Z,19.67
2023-03-10T01:12:03.869Z,22.48
2023-03-10T01:14:32.028Z,27.42
2023-03-10T01:16:59.602Z,27.35
2023-03-10T01:19:26.351Z,23.08
2023-03-10T01:21:53.046Z,20.35
2023-03-10T01:24:19.839Z,22.38
2023-03-10T01:26:46.537Z,21.13
2023-03-10T01:29:13.303Z,21.27
2023-03-10T01:31:42.071Z,22.70
2023-03-10T01:34:08.909Z,22.05
2023-03-10T01:36:35.704Z,20.92
2023-03-10T01:39:02.423Z,21.25
2023-03-10T01:41:29.687Z,20.10
2023-03-10T01:43:57.225Z,18.48
2023-03-10T01:46:27.197Z,21.08
2023-03-10T01:49:00.248Z,21.05
2023-03-10T01:51:27.655Z,19.05
2023-03-10T01:53:54.529Z,19.80
2023-03-10T01:56:21.277Z,17.85
2023-03-10T01:58:48.592Z,18.60
2023-03-10T02:01:17.032Z,16.40
2023-03-10T02:03:49.886Z,16.58
2023-03-10T02:06:19.590Z,15.45
2023-03-10T02:08:50.603Z,15.73
2023-03-10T02:11:19.928Z,15.50
2023-03-10T02:13:47.291Z,16.10
2023-03-10T02:16:15.377Z,14.77
2023-03-10T02:18:44.596Z,15.73
2023-03-10T02:21:41.295Z,15.23
2023-03-10T02:24:34.440Z,13.27
2023-03-10T02:27:12.961Z,14.30
2023-03-10T02:29:57.991Z,13.00
2023-03-10T02:32:27.384Z,14.95
2023-03-10T02:34:54.173Z,14.82
2023-03-10T02:37:24.799Z,14.85
2023-03-10T02:39:53.396Z,13.57
2023-03-10T02:42:21.218Z,14.60
2023-03-10T02:44:49.273Z,13.82
2023-03-10T02:47:16.632Z,14.68
2023-03-10T02:49:44.431Z,14.25
2023-03-10T02:52:38.498Z,13.63
2023-03-10T02:55:05.812Z,13.43
2023-03-10T02:57:32.523Z,13.88
2023-03-10T03:00:00.846Z,12.40
2023-03-10T03:02:27.590Z,14.07
2023-03-10T03:04:54.374Z,12.75
2023-03-10T03:07:21.148Z,13.27
2023-03-10T03:09:47.953Z,14.15
2023-03-10T03:12:14.843Z,12.95
2023-03-10T03:14:44.116Z,12.52
2023-03-10T03:17:10.847Z,12.70
2023-03-10T03:19:37.555Z,11.93
2023-03-10T03:22:04.260Z,11.35
2023-03-10T03:24:32.235Z,11.88
2023-03-10T03:26:59.226Z,11.88
2023-03-10T03:29:28.056Z,11.57
2023-03-10T03:31:55.118Z,10.85
2023-03-10T03:34:25.800Z,23.23
2023-03-10T03:36:55.622Z,28.73
2023-03-10T03:39:28.284Z,12.70
2023-03-10T03:44:30.189Z,10.05
2023-03-10T03:46:57.132Z,11.05
2023-03-10T03:49:25.224Z,12.18
2023-03-10T03:51:52.198Z,11.38
2023-03-10T03:54:19.459Z,12.40
2023-03-10T03:56:46.522Z,16.23
2023-03-10T03:59:14.500Z,12.30
2023-03-10T04:01:41.699Z,12.73
2023-03-10T04:04:09.263Z,11.05
2023-03-10T04:06:36.277Z,9.70
2023-03-10T04:09:04.351Z,9.18
2023-03-10T04:11:32.751Z,8.90
2023-03-10T04:14:00.158Z,9.23
2023-03-10T04:16:27.574Z,8.07
2023-03-10T04:18:54.475Z,9.23
2023-03-10T04:21:21.219Z,9.25
2023-03-10T04:23:51.213Z,8.27
2023-03-10T04:26:22.627Z,8.63
2023-03-10T04:28:49.893Z,7.68
2023-03-10T04:31:22.150Z,8.25
2023-03-10T04:33:50.471Z,8.38
2023-03-10T04:36:19.240Z,8.38
2023-03-10T04:38:51.638Z,8.02
2023-03-10T04:43:47.871Z,7.88
2023-03-10T04:46:16.765Z,7.65
2023-03-10T04:48:44.484Z,7.53
2023-03-10T04:51:12.626Z,7.25
2023-03-10T04:53:45.810Z,7.68
2023-03-10T04:56:12.915Z,7.18
2023-03-10T04:58:40.431Z,7.13
2023-03-10T05:01:12.405Z,7.05
2023-03-10T05:03:43.561Z,7.18
2023-03-10T05:06:16.007Z,7.10
2023-03-10T05:08:46.984Z,6.90
2023-03-10T05:11:15.044Z,7.30
2023-03-10T05:13:41.815Z,8.45
2023-03-10T05:16:16.951Z,6.55
2023-03-10T05:18:45.579Z,8.00
2023-03-10T05:21:13.215Z,6.32
2023-03-10T05:23:41.090Z,7.53
2023-03-10T05:26:09.747Z,7.93
2023-03-10T05:28:37.057Z,7.63
2023-03-10T05:31:12.759Z,6.50
2023-03-10T05:33:44.824Z,6.70
2023-03-10T05:36:14.863Z,7.03
2023-03-10T05:38:44.068Z,6.43
2023-03-10T05:41:13.785Z,7.57
2023-03-10T05:43:41.879Z,7.65
2023-03-10T05:46:10.835Z,6.80
2023-03-10T05:48:43.877Z,6.70
2023-03-10T05:51:12.192Z,7.88
2023-03-10T05:53:39.304Z,6.90
2023-03-10T05:56:12.224Z,7.32
2023-03-10T05:58:39.945Z,6.90
2023-03-10T06:01:11.540Z,8.32
2023-03-10T06:03:41.184Z,8.05
2023-03-10T06:06:08.289Z,8.07
2023-03-10T06:08:35.429Z,7.60
2023-03-10T06:11:02.671Z,7.82
2023-03-10T06:13:29.526Z,8.10
2023-03-10T06:16:04.110Z,7.40
2023-03-10T06:18:32.137Z,8.55
2023-03-10T06:20:58.882Z,8.15
2023-03-10T06:23:26.366Z,7.88
2023-03-10T06:26:01.995Z,7.30
2023-03-10T06:28:33.215Z,8.00
2023-03-10T06:31:01.570Z,6.88
2023-03-10T06:33:28.878Z,7.00
2023-03-10T06:35:55.947Z,7.97
2023-03-10T06:38:23.130Z,7.90
2023-03-10T06:40:50.090Z,6.50
2023-03-10T06:43:16.973Z,7.43
2023-03-10T06:45:45.216Z,6.90
2023-03-10T06:48:12.512Z,7.65
2023-03-10T06:50:48.039Z,6.47
2023-03-10T06:53:16.850Z,7.47
2023-03-10T06:55:43.734Z,6.80
2023-03-10T06:58:10.593Z,7.95
2023-03-10T07:00:39.171Z,7.97
2023-03-10T07:03:06.090Z,7.88
2023-03-10T07:05:32.816Z,8.80
2023-03-10T07:07:59.585Z,8.18
2023-03-10T07:10:26.387Z,7.40
2023-03-10T07:12:55.370Z,7.45
2023-03-10T07:15:23.052Z,7.05
2023-03-10T07:17:49.849Z,7.25
2023-03-10T07:20:17.412Z,6.30
2023-03-10T07:22:44.699Z,6.18
2023-03-10T07:25:11.521Z,6.25
2023-03-10T07:27:38.307Z,7.32
2023-03-10T07:30:06.143Z,8.57
2023-03-10T07:32:33.114Z,7.85
2023-03-10T07:34:59.901Z,8.45
2023-03-10T07:37:26.649Z,8.27
2023-03-10T07:39:54.711Z,6.93
2023-03-10T07:42:21.599Z,7.18
2023-03-10T07:44:48.567Z,7.20
2023-03-10T07:47:15.321Z,7.63
2023-03-10T07:49:47.010Z,6.45
2023-03-10T07:52:15.366Z,6.07
2023-03-10T07:54:44.389Z,7.53
2023-03-10T07:57:12.868Z,7.10
2023-03-10T07:59:40.372Z,8.00
2023-03-10T08:02:07.505Z,7.47
2023-03-10T08:04:34.371Z,7.10
2023-03-10T08:07:02.425Z,6.95
2023-03-10T08:09:29.928Z,6.68
2023-03-10T08:11:58.969Z,6.65
2023-03-10T08:14:28.232Z,6.05
2023-03-10T08:16:56.837Z,6.10
2023-03-10T08:19:24.400Z,6.43
2023-03-10T08:21:52.167Z,6.75
2023-03-10T08:24:18.881Z,7.05
2023-03-10T08:26:45.646Z,6.30
2023-03-10T08:29:12.469Z,6.50
2023-03-10T08:31:41.371Z,6.55
2023-03-10T08:34:19.705Z,6.55
2023-03-10T08:36:52.201Z,5.78
2023-03-10T08:39:27.743Z,6.40
2023-03-10T08:41:55.281Z,5.97
2023-03-10T08:44:22.312Z,6.65
2023-03-10T08:46:49.982Z,6.60
2023-03-10T08:49:18.606Z,5.95
2023-03-10T08:51:50.643Z,6.68
2023-03-10T08:54:22.512Z,8.27
2023-03-10T08:56:49.761Z,11.13
2023-03-10T08:59:23.518Z,7.70
2023-03-10T09:01:54.032Z,6.95
2023-03-10T09:04:23.735Z,5.97
2023-03-10T09:06:51.244Z,6.10
2023-03-10T09:09:24.605Z,5.93
2023-03-10T09:11:56.373Z,6.78
2023-03-10T09:14:23.727Z,6.10
2023-03-10T09:16:50.864Z,6.45
2023-03-10T09:19:26.250Z,6.95
2023-03-10T09:21:55.518Z,6.30
2023-03-10T09:24:38.279Z,6.05
2023-03-10T09:27:15.388Z,6.53
2023-03-10T09:29:51.190Z,9.80
2023-03-10T09:32:24.003Z,13.65
2023-03-10T09:34:54.398Z,6.65
2023-03-10T09:37:28.511Z,6.70
2023-03-10T09:40:16.393Z,6.50
2023-03-10T09:42:57.576Z,5.82
2023-03-10T09:45:56.610Z,6.55
2023-03-10T09:48:50.637Z,6.72
2023-03-10T09:51:32.020Z,6.78
2023-03-10T09:54:25.938Z,6.88
2023-03-10T09:56:55.254Z,6.63
2023-03-10T09:59:43.043Z,5.95
2023-03-10T10:02:39.566Z,6.20
2023-03-10T10:05:18.486Z,5.88
2023-03-10T10:07:52.406Z,5.40
2023-03-10T10:10:39.601Z,5.68
2023-03-10T10:13:16.811Z,5.40
2023-03-10T10:15:51.331Z,5.85
2023-03-10T10:18:27.031Z,6.35
2023-03-10T10:21:13.589Z,6.50
2023-03-10T10:23:51.360Z,6.80
2023-03-10T10:26:24.258Z,6.47
2023-03-10T10:29:07.127Z,6.07
2023-03-10T10:31:36.046Z,8.18
2023-03-10T10:34:22.280Z,7.60
2023-03-10T10:36:55.388Z,7.22
2023-03-10T10:39:41.066Z,7.40
2023-03-10T10:42:26.904Z,7.40
2023-03-10T10:45:02.567Z,6.07
2023-03-10T10:47:36.861Z,7.95
2023-03-10T10:50:24.106Z,9.48
2023-03-10T10:53:16.225Z,8.48
2023-03-10T10:55:44.773Z,8.55
2023-03-10T10:58:28.644Z,7.85
2023-03-10T11:00:59.327Z,6.75
2023-03-10T11:05:56.515Z,7.70
2023-03-10T11:08:27.221Z,7.30
2023-03-10T11:10:59.768Z,8.00
2023-03-10T11:13:35.877Z,7.80
2023-03-10T11:16:23.959Z,7.32
2023-03-10T11:18:58.666Z,7.28
2023-03-10T11:21:32.594Z,7.20
2023-03-10T11:24:17.773Z,6.55
2023-03-10T11:26:52.258Z,7.85
2023-03-10T11:29:28.223Z,9.23
2023-03-10T11:32:04.108Z,9.35
2023-03-10T11:34:32.392Z,10.93
2023-03-10T11:39:46.284Z,10.43
2023-03-10T11:42:32.644Z,9.82
2023-03-10T11:45:13.075Z,12.15
2023-03-10T11:48:03.588Z,13.00
2023-03-10T11:50:38.357Z,9.18
2023-03-10T11:53:26.284Z,8.95
2023-03-10T11:55:54.145Z,23.33
2023-03-10T11:58:28.970Z,10.40
2023-03-10T12:00:56.114Z,8.02
2023-03-10T12:03:43.628Z,9.85
2023-03-10T12:06:14.349Z,9.52
2023-03-10T12:08:41.868Z,9.10
2023-03-10T12:11:15.518Z,7.95
2023-03-10T12:13:47.291Z,9.38
2023-03-10T12:16:26.099Z,9.15
2023-03-10T12:18:56.889Z,8.57
2023-03-10T12:39:32.775Z,7.63
2023-03-10T12:42:04.259Z,8.20
2023-03-10T12:57:59.562Z,88.65
2023-03-10T13:03:53.811Z,7.28
2023-03-10T13:06:47.926Z,6.97
2023-03-10T13:10:22.819Z,6.07
2023-03-10T13:13:07.096Z,5.40
2023-03-10T13:48:39.506Z,8.02
2023-03-10T13:51:58.969Z,7.22
2023-03-10T14:02:13.701Z,8.45
2023-03-10T14:05:57.064Z,9.02
2023-03-10T14:08:34.082Z,8.75
2023-03-10T14:11:25.239Z,13.18
2023-03-10T14:41:40.195Z,12.90
2023-03-10T14:44:10.079Z,14.13
2023-03-10T14:50:23.874Z,12.82
2023-03-10T14:52:58.183Z,12.98
2023-03-10T14:55:41.926Z,11.93
2023-03-10T14:59:07.969Z,12.15
2023-03-10T15:01:41.955Z,11.30
2023-03-10T15:04:27.646Z,17.77
2023-03-10T15:07:04.607Z,12.23
2023-03-10T15:10:10.588Z,16.00
2023-03-10T15:13:02.139Z,16.87
2023-03-10T15:16:03.490Z,17.83
2023-03-10T15:19:00.627Z,18.23
2023-03-10T15:21:27.874Z,17.10
2023-03-10T15:24:23.604Z,26.90
2023-03-10T15:27:34.044Z,16.33
2023-03-10T15:38:21.304Z,17.80
2023-03-10T15:40:58.346Z,15.88
2023-03-10T15:44:33.229Z,15.95
2023-03-10T15:47:11.102Z,19.63
2023-03-10T15:50:25.957Z,18.38
2023-03-10T15:53:26.022Z,17.30
2023-03-10T15:55:56.608Z,19.00
2023-03-10T15:58:30.427Z,21.40
2023-03-10T16:01:21.074Z,19.65
2023-03-10T16:03:58.628Z,18.88
2023-03-10T16:06:40.277Z,19.27
2023-03-10T16:09:51.946Z,18.17
2023-03-10T16:12:23.850Z,16.63
2023-03-10T16:17:29.160Z,17.08
2023-03-10T16:20:00.890Z,15.40
2023-03-10T16:22:27.926Z,15.82
2023-03-10T16:24:54.925Z,19.38
2023-03-10T16:27:21.733Z,30.88
2023-03-10T16:29:51.943Z,18.77
2023-03-10T16:32:19.865Z,18.73
2023-03-10T16:35:04.337Z,17.20
2023-03-10T16:37:40.653Z,15.77
2023-03-10T16:40:26.777Z,16.73
2023-03-10T16:42:58.455Z,14.50
2023-03-10T16:45:33.856Z,14.65
2023-03-10T16:48:09.768Z,14.23
2023-03-10T16:50:38.036Z,13.75
2023-03-10T16:53:07.922Z,15.60
2023-03-10T16:55:35.094Z,15.20
2023-03-10T16:58:03.702Z,13.98
2023-03-10T17:00:31.400Z,14.65
2023-03-10T17:03:00.432Z,14.70
2023-03-10T17:13:00.556Z,15.00
2023-03-10T17:16:30.475Z,13.88
2023-03-10T17:19:24.612Z,15.18
2023-03-10T17:22:12.074Z,15.15
2023-03-10T17:24:42.008Z,14.95
2023-03-10T17:27:20.882Z,14.95
2023-03-10T17:30:03.614Z,15.38
2023-03-10T17:33:04.700Z,13.55
2023-03-10T17:36:00.738Z,14.25
2023-03-10T17:38:41.495Z,13.50
2023-03-10T17:41:12.260Z,14.07
2023-03-10T17:43:57.161Z,15.40
2023-03-10T17:46:45.736Z,15.15
2023-03-10T17:50:02.601Z,16.37
2023-03-10T17:52:42.885Z,19.27
2023-03-10T17:55:34.578Z,21.25
2023-03-10T17:58:08.843Z,24.60
2023-03-10T18:00:36.706Z,19.17
2023-03-10T18:03:37.127Z,20.20
2023-03-10T18:06:33.907Z,18.67
2023-03-10T18:09:32.731Z,19.20
2023-03-10T18:12:23.670Z,20.65
2023-03-10T18:15:09.725Z,17.77
2023-03-10T18:25:15.005Z,19.23
2023-03-10T18:31:08.181Z,22.45
2023-03-10T18:34:10.509Z,27.23
2023-03-10T18:37:28.402Z,42.08
2023-03-10T18:40:11.114Z,22.33
2023-03-10T18:46:28.095Z,22.30
2023-03-10T18:52:30.550Z,20.60
2023-03-10T18:55:24.449Z,20.60
2023-03-10T18:58:20.974Z,19.23
2023-03-10T19:00:48.218Z,20.35
2023-03-10T19:03:23.916Z,19.95
2023-03-10T19:06:16.909Z,19.63
2023-03-10T19:09:12.647Z,20.85
2023-03-10T19:12:18.449Z,21.30
2023-03-10T19:21:43.545Z,19.58
2023-03-10T19:25:17.811Z,19.52
2023-03-10T19:28:35.454Z,17.83
2023-03-10T19:31:24.658Z,20.80
2023-03-10T19:33:56.821Z,19.27
2023-03-10T19:36:30.371Z,19.85
2023-03-10T19:39:00.814Z,18.75
2023-03-10T19:41:44.763Z,19.63
2023-03-10T19:44:31.093Z,20.92
2023-03-10T19:47:00.974Z,20.05
2023-03-10T19:55:58.806Z,19.40
2023-03-10T19:58:48.638Z,18.60
2023-03-10T20:01:57.084Z,19.60
2023-03-10T20:04:24.033Z,56.08
2023-03-10T20:06:51.012Z,21.38
2023-03-10T20:09:19.076Z,19.98
2023-03-10T20:11:51.324Z,19.05
2023-03-10T20:17:09.600Z,19.02
2023-03-10T20:19:36.833Z,18.88
2023-03-10T20:22:04.809Z,18.05
2023-03-10T20:24:31.928Z,18.25
2023-03-10T20:27:00.348Z,20.90
2023-03-10T20:29:30.470Z,22.10
2023-03-10T20:31:57.508Z,20.83
2023-03-10T20:34:26.002Z,24.10
2023-03-10T20:36:55.260Z,23.40
2023-03-10T20:39:22.481Z,20.15
2023-03-10T20:41:49.906Z,20.65
2023-03-10T20:44:17.281Z,22.95
2023-03-10T20:46:47.203Z,19.10
2023-03-10T20:49:18.414Z,18.38
2023-03-10T20:51:46.122Z,18.70
2023-03-10T20:54:19.245Z,18.55
2023-03-10T20:56:51.862Z,18.75
2023-03-10T20:59:27.217Z,18.67
2023-03-10T21:02:38.310Z,18.92
2023-03-10T21:05:08.708Z,19.52
2023-03-10T21:07:35.790Z,20.08
2023-03-10T21:10:04.505Z,27.13
2023-03-10T21:12:34.450Z,34.17
2023-03-10T21:15:07.550Z,21.02
2023-03-10T21:17:37.510Z,21.33
2023-03-10T21:20:08.177Z,25.67
2023-03-10T21:25:06.968Z,20.05
2023-03-10T21:27:35.849Z,21.73
2023-03-10T21:30:08.076Z,22.95
2023-03-10T21:32:35.494Z,21.40
2023-03-10T21:35:05.231Z,21.40
2023-03-10T21:37:32.959Z,22.73
2023-03-10T21:40:01.306Z,24.08
2023-03-10T21:42:28.182Z,24.40
2023-03-10T21:44:56.076Z,25.75
2023-03-10T21:47:28.729Z,26.40
2023-03-10T21:49:58.068Z,26.40
2023-03-10T21:52:35.234Z,23.52
2023-03-10T21:55:06.438Z,26.80
2023-03-10T21:57:34.581Z,26.10
2023-03-10T22:00:04.254Z,26.17
2023-03-10T22:02:37.838Z,26.48
2023-03-10T22:05:06.588Z,23.02
2023-03-10T22:10:25.746Z,21.90
2023-03-10T22:12:53.041Z,21.33
2023-03-10T22:15:24.185Z,22.13
2023-03-10T22:17:54.184Z,22.83
2023-03-10T22:20:23.941Z,22.48
2023-03-10T22:22:53.435Z,21.87
2023-03-10T22:25:21.257Z,21.98
2023-03-10T22:27:53.642Z,22.38
2023-03-10T22:30:21.331Z,22.73
2023-03-10T22:32:49.820Z,22.02
2023-03-10T22:35:18.094Z,20.52
2023-03-10T22:37:47.194Z,20.00
2023-03-10T22:40:17.025Z,20.92
2023-03-10T22:42:44.787Z,19.08
2023-03-10T22:45:17.697Z,19.77
2023-03-10T22:47:44.717Z,18.75
2023-03-10T22:50:25.298Z,19.00
2023-03-10T22:52:52.811Z,20.15
2023-03-10T22:55:24.672Z,18.50
2023-03-10T22:57:53.046Z,17.25
2023-03-10T23:00:22.116Z,18.40
2023-03-10T23:02:50.514Z,18.35
2023-03-10T23:05:18.000Z,16.25
2023-03-10T23:07:45.899Z,16.58
2023-03-10T23:10:19.444Z,17.85
2023-03-10T23:12:49.602Z,17.40
2023-03-10T23:15:26.423Z,17.27
2023-03-10T23:17:54.729Z,17.90
2023-03-10T23:20:27.774Z,16.95
2023-03-10T23:22:56.327Z,17.23
2023-03-10T23:25:32.240Z,18.05
2023-03-10T23:27:59.868Z,17.42
2023-03-10T23:30:27.455Z,16.75
2023-03-10T23:32:55.088Z,17.25
2023-03-10T23:35:26.918Z,17.15
2023-03-10T23:38:02.927Z,17.00
2023-03-10T23:40:34.494Z,17.00
2023-03-10T23:43:09.161Z,17.98
2023-03-10T23:45:40.282Z,16.05
2023-03-10T23:48:09.202Z,18.00
2023-03-10T23:50:42.270Z,17.02
2023-03-10T23:53:18.795Z,16.75
2023-03-10T23:55:46.680Z,16.40
2023-03-10T23:58:20.443Z,15.82
